Time;durP1;ratioP1;P1;durP2;ratioP2;P2;SDS_P1;SDS_P2;PMS_P1;PMS_P2;Temp;Humidity;BMP_temperature;BMP_pressure;BME280_temperature;BME280_humidity;BME280_pressure;Samples;Min_cycle;Max_cycle;Signal;HPM_P1;HPM_P2
2022/05/27 00:01:10;;;;;;;32.60;7.47;;;14.40;99.90;;;;;;5027441;28;20063;-72
2022/05/27 00:03:36;;;;;;;28.52;6.85;;;14.40;99.90;;;;;;5010562;28;20037;-68
2022/05/27 00:06:02;;;;;;;25.02;5.80;;;14.40;99.90;;;;;;5011994;28;20084;-72
2022/05/27 00:08:28;;;;;;;25.58;4.57;;;14.30;99.90;;;;;;5030115;28;20041;-70
2022/05/27 00:10:56;;;;;;;18.90;3.60;;;14.30;99.90;;;;;;5029726;28;20048;-67
2022/05/27 00:13:22;;;;;;;21.55;4.85;;;14.20;99.90;;;;;;5028473;28;20052;-69
2022/05/27 00:15:48;;;;;;;16.13;3.80;;;14.20;99.90;;;;;;5012833;28;20124;-65
2022/05/27 00:18:14;;;;;;;18.98;4.85;;;14.20;99.90;;;;;;5029085;28;20632;-71
2022/05/27 00:20:40;;;;;;;24.98;5.28;;;14.20;99.90;;;;;;5029405;28;20049;-66
2022/05/27 00:23:06;;;;;;;19.15;4.15;;;14.10;99.90;;;;;;5028838;28;20690;-73
2022/05/27 00:25:32;;;;;;;27.02;4.18;;;14.10;99.90;;;;;;5013011;28;20049;-67
2022/05/27 00:27:58;;;;;;;21.65;5.57;;;14.10;99.90;;;;;;5028670;28;20049;-69
2022/05/27 00:30:24;;;;;;;28.30;6.28;;;13.90;99.90;;;;;;5029216;28;20053;-68
2022/05/27 00:32:50;;;;;;;16.70;5.38;;;13.90;99.90;;;;;;5028860;28;20045;-67
2022/05/27 00:35:16;;;;;;;27.58;6.28;;;13.80;99.90;;;;;;5011933;28;20111;-70
2022/05/27 00:37:42;;;;;;;25.80;6.07;;;13.80;99.90;;;;;;5012264;28;20045;-72
2022/05/27 00:40:10;;;;;;;22.63;6.30;;;13.80;99.90;;;;;;5028494;28;20049;-65
2022/05/27 00:42:40;;;;;;;25.38;6.63;;;13.70;99.90;;;;;;5029599;28;20090;-68
2022/05/27 00:45:12;;;;;;;15.90;4.50;;;13.60;99.90;;;;;;5011419;28;20053;-69
2022/05/27 00:47:39;;;;;;;20.80;5.05;;;13.60;99.90;;;;;;5029329;28;20408;-66
2022/05/27 00:50:08;;;;;;;19.50;5.00;;;13.60;99.90;;;;;;5028332;28;20124;-67
2022/05/27 00:52:37;;;;;;;19.10;4.60;;;13.60;99.90;;;;;;5029095;28;20110;-68
2022/05/27 00:55:07;;;;;;;18.50;4.87;;;13.50;99.90;;;;;;5028532;28;20575;-69
2022/05/27 00:57:40;;;;;;;19.70;5.55;;;13.50;99.90;;;;;;5028253;28;20059;-66
2022/05/27 01:00:13;;;;;;;32.85;6.90;;;13.40;99.90;;;;;;5028440;28;20055;-69
2022/05/27 01:02:40;;;;;;;23.90;6.07;;;13.40;99.90;;;;;;5027982;28;20048;-65
2022/05/27 01:05:09;;;;;;;19.40;4.80;;;13.40;99.90;;;;;;5011531;28;20128;-74
2022/05/27 01:07:34;;;;;;;22.55;5.60;;;13.30;99.90;;;;;;5028680;28;20063;-66
2022/05/27 01:10:02;;;;;;;21.48;5.43;;;13.30;99.90;;;;;;5028701;28;20057;-70
2022/05/27 01:12:37;;;;;;;26.13;5.82;;;13.30;99.90;;;;;;5028566;28;20055;-66
2022/05/27 01:15:05;;;;;;;17.98;4.85;;;13.30;99.90;;;;;;5028037;28;20041;-67
2022/05/27 01:17:56;;;;;;;16.02;3.33;;;13.30;99.90;;;;;;5012830;28;20049;-70
2022/05/27 01:20:55;;;;;;;18.80;3.40;;;13.30;99.90;;;;;;5027849;28;20048;-74
2022/05/27 01:23:59;;;;;;;19.33;3.38;;;13.30;99.90;;;;;;5027751;28;20865;-65
2022/05/27 01:26:42;;;;;;;17.73;3.30;;;13.20;99.90;;;;;;5028061;28;20075;-68
2022/05/27 01:29:27;;;;;;;15.60;3.17;;;13.20;99.90;;;;;;5027396;28;20072;-76
2022/05/27 01:32:01;;;;;;;16.05;3.58;;;13.20;99.90;;;;;;5028124;28;20069;-69
2022/05/27 01:35:16;;;;;;;9.07;2.28;;;13.10;99.90;;;;;;5027960;28;20715;-64
2022/05/27 01:37:52;;;;;;;14.82;2.63;;;13.10;99.90;;;;;;5019101;28;20152;-71
2022/05/27 01:40:26;;;;;;;13.98;2.50;;;13.00;99.90;;;;;;5010531;28;20091;-67
2022/05/27 01:43:05;;;;;;;14.80;2.70;;;13.00;99.90;;;;;;5028292;28;20049;-69
2022/05/27 01:45:50;;;;;;;16.80;2.70;;;13.00;99.90;;;;;;5007504;28;20528;-66
2022/05/27 01:48:27;;;;;;;13.75;2.80;;;13.00;99.90;;;;;;5024561;28;20461;-66
2022/05/27 01:51:08;;;;;;;12.20;2.28;;;13.00;99.90;;;;;;5025015;28;20053;-67
2022/05/27 01:53:45;;;;;;;15.30;2.88;;;13.00;99.90;;;;;;5027212;28;20110;-69
2022/05/27 01:56:33;;;;;;;20.02;3.22;;;12.90;99.90;;;;;;5028254;28;20049;-66
2022/05/27 01:59:09;;;;;;;11.90;2.35;;;12.90;99.90;;;;;;5011398;28;20496;-65
2022/05/27 02:01:39;;;;;;;14.48;2.85;;;12.90;99.90;;;;;;4994922;28;20506;-66
2022/05/27 02:04:17;;;;;;;10.70;2.75;;;12.90;99.90;;;;;;5027966;28;20047;-67
2022/05/27 02:06:49;;;;;;;13.55;2.25;;;12.90;99.90;;;;;;5028985;28;20064;-65
2022/05/27 02:09:40;;;;;;;15.25;3.10;;;12.90;99.90;;;;;;5031683;28;20483;-68
2022/05/27 02:12:12;;;;;;;19.20;2.50;;;12.80;99.90;;;;;;5032179;28;20049;-71
2022/05/27 02:14:55;;;;;;;12.20;2.50;;;12.80;99.90;;;;;;5049710;28;20191;-71
2022/05/27 02:17:27;;;;;;;17.65;3.50;;;12.80;99.90;;;;;;5031125;28;20672;-71
2022/05/27 02:20:16;;;;;;;16.35;3.25;;;12.70;99.90;;;;;;5031852;28;20044;-67
2022/05/27 02:22:49;;;;;;;14.45;2.90;;;12.70;99.90;;;;;;5030807;28;20118;-72
2022/05/27 02:25:21;;;;;;;16.63;2.58;;;12.60;99.90;;;;;;5014791;28;20037;-71
2022/05/27 02:27:53;;;;;;;18.38;3.22;;;12.60;99.90;;;;;;5031484;28;20365;-68
2022/05/27 02:30:23;;;;;;;15.80;2.88;;;12.60;99.90;;;;;;5031453;28;20045;-68
2022/05/27 02:35:07;;;;;;;18.48;3.17;;;12.50;99.90;;;;;;5031384;28;20098;-66
2022/05/27 02:35:44;;;;;;;10.60;2.70;;;12.50;99.90;;;;;;5031388;28;20131;-71
2022/05/27 02:38:10;;;;;;;11.88;2.63;;;12.40;99.90;;;;;;5031138;28;20049;-70
2022/05/27 02:40:45;;;;;;;15.27;2.50;;;12.40;99.90;;;;;;5013945;28;20098;-70
2022/05/27 02:43:24;;;;;;;20.48;2.90;;;12.30;99.90;;;;;;5031442;28;20048;-65
2022/05/27 02:46:18;;;;;;;17.00;2.78;;;12.30;99.90;;;;;;5030976;28;20045;-66
2022/05/27 02:49:06;;;;;;;16.98;3.22;;;12.20;99.90;;;;;;5025576;28;20491;-71
2022/05/27 02:51:47;;;;;;;18.88;3.33;;;12.10;99.90;;;;;;5030922;28;20067;-70
2022/05/27 02:54:18;;;;;;;18.85;4.00;;;12.10;99.90;;;;;;5030574;28;20065;-64
2022/05/27 02:56:58;;;;;;;15.93;2.53;;;12.10;99.90;;;;;;5031432;28;20492;-69
2022/05/27 02:59:25;;;;;;;14.97;3.13;;;12.00;99.90;;;;;;5030004;28;20115;-70
2022/05/27 03:01:51;;;;;;;9.75;2.42;;;12.00;99.90;;;;;;5030630;28;20068;-64
2022/05/27 03:04:20;;;;;;;11.00;2.70;;;12.00;99.90;;;;;;5014144;28;20033;-71
2022/05/27 03:07:15;;;;;;;16.13;3.72;;;12.10;99.90;;;;;;5031000;28;20619;-65
2022/05/27 03:09:56;;;;;;;17.88;2.28;;;12.10;99.90;;;;;;5049533;28;20045;-63
2022/05/27 03:12:43;;;;;;;18.88;2.63;;;12.10;99.90;;;;;;5045939;28;20049;-64
2022/05/27 03:15:15;;;;;;;14.30;2.53;;;12.00;99.90;;;;;;5014166;28;20049;-68
2022/05/27 03:18:14;;;;;;;15.82;2.92;;;11.90;99.90;;;;;;5029595;28;20475;-71
2022/05/27 03:20:48;;;;;;;16.63;2.58;;;11.90;99.90;;;;;;4989233;28;20061;-67
2022/05/27 03:23:39;;;;;;;12.75;2.63;;;12.00;99.90;;;;;;5011179;28;20152;-73
2022/05/27 03:26:30;;;;;;;10.43;2.90;;;11.90;99.90;;;;;;5011080;28;20080;-73
2022/05/27 03:29:14;;;;;;;10.52;2.30;;;11.90;99.90;;;;;;5010351;28;20472;-70
2022/05/27 03:31:51;;;;;;;13.30;3.03;;;11.90;99.90;;;;;;5030318;28;20041;-67
2022/05/27 03:34:37;;;;;;;10.25;2.35;;;11.80;99.90;;;;;;5029961;28;20462;-65
2022/05/27 03:37:16;;;;;;;12.18;2.35;;;11.80;99.90;;;;;;5013849;28;20045;-66
2022/05/27 03:39:52;;;;;;;14.03;2.70;;;11.80;99.90;;;;;;5030046;28;20064;-72
2022/05/27 03:42:19;;;;;;;14.75;3.53;;;11.80;99.90;;;;;;5012930;28;20090;-73
2022/05/27 03:45:10;;;;;;;9.80;2.78;;;11.80;99.90;;;;;;5030490;28;20172;-65
2022/05/27 03:47:36;;;;;;;;;;;11.90;99.90;;;;;;5029544;28;20479;-70
2022/05/27 03:50:03;;;;;;;14.95;2.17;;;11.90;99.90;;;;;;5030205;28;20302;-73
2022/05/27 03:52:35;;;;;;;15.38;2.95;;;11.90;99.90;;;;;;5029536;28;20076;-65
2022/05/27 03:55:01;;;;;;;9.63;2.35;;;11.90;99.90;;;;;;5029779;28;20399;-67
2022/05/27 03:57:27;;;;;;;13.30;2.25;;;11.80;99.90;;;;;;5029783;28;20052;-68
2022/05/27 03:59:53;;;;;;;12.85;2.97;;;11.80;99.90;;;;;;5013116;28;20048;-65
2022/05/27 04:02:18;;;;;;;11.73;2.22;;;11.80;99.90;;;;;;5029116;28;20084;-66
2022/05/27 04:04:44;;;;;;;14.85;2.30;;;11.80;99.90;;;;;;5009050;28;20059;-64
2022/05/27 04:07:10;;;;;;;10.43;2.58;;;11.70;99.90;;;;;;5009907;28;20132;-71
2022/05/27 04:09:36;;;;;;;8.15;2.75;;;11.70;99.90;;;;;;5009765;28;20118;-69
2022/05/27 04:12:03;;;;;;;15.63;2.70;;;11.70;99.90;;;;;;5009563;28;20080;-73
2022/05/27 04:14:31;;;;;;;18.80;3.35;;;11.70;99.90;;;;;;5027826;28;20435;-63
2022/05/27 04:17:27;;;;;;;17.92;3.08;;;11.70;99.90;;;;;;5029681;28;20115;-68
2022/05/27 04:19:43;;;;;;;16.77;3.13;;;11.70;99.90;;;;;;5029259;28;20061;-69
2022/05/27 04:22:09;;;;;;;16.83;2.58;;;11.70;99.90;;;;;;5029297;28;20063;-69
2022/05/27 04:24:35;;;;;;;18.80;2.90;;;11.70;99.90;;;;;;5028270;28;20041;-68
2022/05/27 04:27:13;;;;;;;11.30;2.50;;;11.70;99.90;;;;;;5029496;28;20037;-68
2022/05/27 04:29:45;;;;;;;15.07;2.40;;;11.70;99.90;;;;;;5027896;28;20049;-64
2022/05/27 04:32:11;;;;;;;17.48;2.85;;;11.70;99.90;;;;;;5029290;28;20053;-64
2022/05/27 04:34:37;;;;;;;8.18;2.00;;;11.70;99.90;;;;;;5027757;28;20103;-64
2022/05/27 04:37:03;;;;;;;12.57;2.78;;;11.70;99.90;;;;;;5029354;28;20048;-65
2022/05/27 04:39:29;;;;;;;16.38;2.85;;;11.70;99.90;;;;;;5027805;28;20052;-63
2022/05/27 04:41:55;;;;;;;14.05;2.97;;;11.80;99.90;;;;;;5029076;28;20041;-66
2022/05/27 04:44:21;;;;;;;15.85;3.15;;;11.80;99.90;;;;;;5012492;28;20102;-68
2022/05/27 04:46:47;;;;;;;15.00;3.13;;;11.90;99.90;;;;;;5028305;28;20484;-64
2022/05/27 04:49:50;;;;;;;14.75;2.67;;;11.90;99.90;;;;;;5028788;28;20048;-64
2022/05/27 04:51:59;;;;;;;12.10;2.45;;;11.90;99.90;;;;;;5029070;28;20128;-64
2022/05/27 04:54:26;;;;;;;18.67;3.17;;;11.90;99.90;;;;;;5028278;28;20060;-75
2022/05/27 04:56:54;;;;;;;20.80;2.83;;;12.00;99.90;;;;;;5028332;28;20099;-66
2022/05/27 04:59:19;;;;;;;22.05;3.17;;;12.00;99.90;;;;;;5027185;28;20148;-71
2022/05/27 05:01:45;;;;;;;23.08;4.20;;;12.10;99.90;;;;;;5011742;28;20410;-64
2022/05/27 05:04:11;;;;;;;19.75;3.10;;;12.10;99.90;;;;;;5011767;28;20052;-65
2022/05/27 05:06:36;;;;;;;12.57;2.63;;;12.10;99.90;;;;;;5028675;28;20041;-66
2022/05/27 05:09:02;;;;;;;18.80;4.15;;;12.10;98.80;;;;;;5028193;28;20096;-74
2022/05/27 05:11:28;;;;;;;16.70;3.67;;;12.20;99.90;;;;;;5027739;28;20045;-68
2022/05/27 05:13:54;;;;;;;19.25;3.40;;;12.20;98.70;;;;;;5028387;28;20056;-65
2022/05/27 05:16:19;;;;;;;19.75;3.22;;;12.20;98.20;;;;;;5028415;28;20399;-67
2022/05/27 05:18:45;;;;;;;15.00;3.05;;;12.20;98.80;;;;;;5011934;28;20044;-66
2022/05/27 05:21:11;;;;;;;14.90;3.15;;;12.10;98.10;;;;;;5011544;28;20403;-65
2022/05/27 05:23:36;;;;;;;17.33;2.90;;;12.10;97.90;;;;;;5046222;28;20048;-64
2022/05/27 05:26:02;;;;;;;15.18;3.55;;;12.10;97.90;;;;;;5011779;28;20048;-73
2022/05/27 05:28:28;;;;;;;18.98;2.83;;;12.10;98.10;;;;;;5028831;28;20048;-69
2022/05/27 05:30:56;;;;;;;14.90;3.40;;;12.10;95.90;;;;;;5045478;28;20037;-63
2022/05/27 05:33:22;;;;;;;19.65;2.88;;;12.20;97.80;;;;;;5028104;28;20056;-73
2022/05/27 05:35:48;;;;;;;17.77;2.80;;;12.20;98.30;;;;;;5011275;28;20041;-67
2022/05/27 05:38:14;;;;;;;27.88;3.47;;;12.20;98.50;;;;;;5028159;28;20045;-65
2022/05/27 05:40:40;;;;;;;13.07;3.47;;;12.30;97.30;;;;;;5028158;28;20040;-64
2022/05/27 05:43:06;;;;;;;13.32;3.75;;;12.30;97.20;;;;;;5011218;28;20490;-67
2022/05/27 05:45:32;;;;;;;15.77;3.42;;;12.30;93.20;;;;;;5011531;28;20488;-67
2022/05/27 05:47:58;;;;;;;21.35;3.83;;;12.30;95.40;;;;;;5011713;28;20060;-73
2022/05/27 05:50:25;;;;;;;16.55;3.63;;;12.30;96.00;;;;;;5011868;28;20495;-70
2022/05/27 05:52:50;;;;;;;16.52;3.63;;;12.30;94.80;;;;;;5026930;28;20045;-68
2022/05/27 05:55:18;;;;;;;21.98;4.38;;;12.40;92.70;;;;;;5028063;28;20051;-64
2022/05/27 05:57:45;;;;;;;16.00;3.58;;;12.40;91.30;;;;;;5027868;28;20044;-64
2022/05/27 06:00:14;;;;;;;11.98;2.80;;;12.50;93.40;;;;;;5046086;28;20569;-63
2022/05/27 06:02:40;;;;;;;25.20;4.65;;;12.60;94.80;;;;;;5027352;28;20045;-68
2022/05/27 06:05:07;;;;;;;13.88;3.40;;;12.60;94.10;;;;;;5027958;28;20162;-69
2022/05/27 06:07:33;;;;;;;22.65;4.25;;;12.60;94.40;;;;;;5028132;28;20042;-64
2022/05/27 06:09:59;;;;;;;18.73;3.83;;;12.60;95.90;;;;;;5027894;28;20499;-68
2022/05/27 06:12:26;;;;;;;22.85;3.83;;;12.60;95.80;;;;;;5028264;28;20060;-67
2022/05/27 06:14:53;;;;;;;28.70;4.05;;;12.60;94.50;;;;;;5026669;28;20055;-70
2022/05/27 06:17:20;;;;;;;19.80;3.50;;;12.60;98.10;;;;;;5027914;28;20121;-63
2022/05/27 06:19:45;;;;;;;15.98;3.22;;;12.60;97.70;;;;;;5027635;28;20033;-67
2022/05/27 06:22:11;;;;;;;16.70;2.90;;;12.70;98.30;;;;;;5027825;28;20044;-64
2022/05/27 06:24:37;;;;;;;18.73;3.53;;;12.80;98.90;;;;;;5011232;28;20056;-64
2022/05/27 06:27:07;;;;;;;16.25;3.65;;;12.90;98.90;;;;;;5027548;28;20487;-63
2022/05/27 06:35:01;;;;;;;27.45;4.50;;;13.50;98.80;;;;;;5012960;28;20045;-69
2022/05/27 06:37:28;;;;;;;18.67;3.65;;;13.50;93.60;;;;;;5027872;28;20076;-65
2022/05/27 06:39:54;;;;;;;23.30;3.75;;;13.60;93.70;;;;;;5024493;28;20427;-68
2022/05/27 06:42:22;;;;;;;25.05;4.57;;;13.40;91.40;;;;;;5008269;28;20042;-72
2022/05/27 06:44:47;;;;;;;20.98;4.45;;;13.30;86.50;;;;;;5007319;28;20076;-64
2022/05/27 06:47:13;;;;;;;13.70;3.25;;;13.10;81.30;;;;;;5024205;28;20104;-64
2022/05/27 06:49:40;;;;;;;17.77;3.95;;;13.00;79.20;;;;;;5011267;28;20101;-64
2022/05/27 06:52:07;;;;;;;13.65;3.20;;;12.80;85.40;;;;;;5000459;28;20172;-68
2022/05/27 06:54:36;;;;;;;14.32;3.15;;;12.90;83.10;;;;;;5024560;28;20465;-69
2022/05/27 06:57:04;;;;;;;20.05;3.78;;;13.20;90.00;;;;;;5027451;28;20503;-70
2022/05/27 06:59:30;;;;;;;18.17;3.58;;;13.50;78.20;;;;;;5028382;28;20042;-68
2022/05/27 07:01:56;;;;;;;14.38;3.50;;;13.70;84.10;;;;;;5026305;28;20450;-64
2022/05/27 07:04:22;;;;;;;16.23;3.20;;;13.90;67.60;;;;;;5011188;28;20061;-71
2022/05/27 07:06:49;;;;;;;22.30;4.82;;;13.90;68.10;;;;;;5026939;28;20049;-67
2022/05/27 07:09:17;;;;;;;15.93;3.78;;;14.00;62.50;;;;;;5027134;28;20049;-68
2022/05/27 07:11:45;;;;;;;20.50;4.80;;;14.00;62.70;;;;;;5026694;28;20041;-65
2022/05/27 07:14:12;;;;;;;15.50;3.80;;;13.90;58.20;;;;;;5027503;28;20080;-66
2022/05/27 07:16:38;;;;;;;15.63;3.10;;;13.80;63.60;;;;;;5027066;28;20049;-68
2022/05/27 07:19:04;;;;;;;15.85;3.78;;;13.70;68.50;;;;;;5015036;28;20038;-64
2022/05/27 07:21:30;;;;;;;20.65;4.22;;;13.60;68.10;;;;;;5008809;28;20042;-72
2022/05/27 07:23:56;;;;;;;15.30;3.15;;;13.60;69.40;;;;;;4989906;28;20171;-68
2022/05/27 07:26:24;;;;;;;18.67;3.40;;;13.70;63.40;;;;;;5007318;28;20135;-74
2022/05/27 07:28:50;;;;;;;20.67;4.03;;;13.80;71.40;;;;;;5018584;28;20068;-69
2022/05/27 07:31:19;;;;;;;20.95;4.18;;;13.80;67.10;;;;;;5009267;28;20123;-69
2022/05/27 07:33:46;;;;;;;18.85;3.78;;;13.70;70.00;;;;;;5027415;28;20057;-67
2022/05/27 07:36:13;;;;;;;15.63;3.63;;;13.70;62.10;;;;;;5026574;28;20041;-64
2022/05/27 07:38:40;;;;;;;12.13;3.47;;;13.90;49.30;;;;;;5010608;28;20412;-73
2022/05/27 07:41:06;;;;;;;15.75;4.35;;;14.20;53.40;;;;;;5009712;28;20097;-66
2022/05/27 07:43:33;;;;;;;17.65;4.50;;;14.50;46.50;;;;;;5026939;28;20046;-65
2022/05/27 07:45:59;;;;;;;14.63;3.72;;;14.60;42.80;;;;;;5007574;28;20159;-73
2022/05/27 07:48:25;;;;;;;19.73;3.97;;;14.50;40.00;;;;;;5006639;28;20099;-72
2022/05/27 07:50:51;;;;;;;18.23;3.88;;;14.50;46.70;;;;;;5007698;28;20158;-67
2022/05/27 07:53:18;;;;;;;17.65;3.80;;;14.70;49.70;;;;;;5012118;28;20509;-70
2022/05/27 07:55:44;;;;;;;14.63;3.50;;;14.90;46.10;;;;;;5012191;28;20045;-64
2022/05/27 07:58:10;;;;;;;11.90;3.38;;;15.10;44.70;;;;;;4998084;28;20115;-73
2022/05/27 08:00:37;;;;;;;22.55;5.40;;;14.80;44.40;;;;;;5012875;28;20089;-64
2022/05/27 08:03:04;;;;;;;18.80;4.30;;;14.30;48.50;;;;;;5017387;28;20073;-64
2022/05/27 08:05:30;;;;;;;20.13;5.10;;;14.00;54.40;;;;;;5028156;28;20053;-72
2022/05/27 08:07:58;;;;;;;26.63;4.95;;;13.70;59.40;;;;;;5029546;28;20048;-63
2022/05/27 08:10:27;;;;;;;17.35;4.22;;;13.50;57.60;;;;;;5029486;28;20060;-67
2022/05/27 08:12:53;;;;;;;23.85;4.55;;;13.40;60.20;;;;;;5020651;28;20157;-65
2022/05/27 08:15:18;;;;;;;16.85;3.10;;;13.40;62.10;;;;;;5008765;28;20430;-68
2022/05/27 08:17:44;;;;;;;24.13;3.88;;;14.00;55.00;;;;;;5011245;28;20376;-65
2022/05/27 08:20:14;;;;;;;14.10;3.65;;;13.90;50.50;;;;;;5008928;28;20053;-75
2022/05/27 08:22:40;;;;;;;18.33;3.05;;;13.70;52.80;;;;;;5032285;28;20421;-64
2022/05/27 08:25:06;;;;;;;16.55;3.30;;;13.90;63.00;;;;;;5008617;28;20038;-65
2022/05/27 08:27:32;;;;;;;17.17;4.05;;;14.30;60.70;;;;;;5025266;28;20079;-71
2022/05/27 08:29:58;;;;;;;18.13;3.83;;;14.30;55.30;;;;;;4992390;28;20049;-72
2022/05/27 08:32:23;;;;;;;23.98;4.90;;;14.10;56.40;;;;;;4993726;28;20050;-68
2022/05/27 08:40:47;;;;;;;16.77;4.18;;;13.60;68.10;;;;;;5013707;28;20069;-75
2022/05/27 08:43:35;;;;;;;14.55;3.60;;;13.70;61.10;;;;;;5024705;28;20056;-64
2022/05/27 08:46:20;;;;;;;16.98;3.88;;;14.00;61.70;;;;;;5026083;28;20041;-67
2022/05/27 08:48:49;;;;;;;19.55;4.13;;;14.10;55.10;;;;;;5007973;28;20129;-74
2022/05/27 08:51:23;;;;;;;17.17;4.03;;;14.20;62.30;;;;;;5012772;28;20033;-70
2022/05/27 08:54:00;;;;;;;18.80;4.20;;;14.20;60.20;;;;;;5023867;28;20407;-69
2022/05/27 08:59:44;;;;;;;19.83;4.03;;;13.80;63.20;;;;;;5019713;28;20045;-69
2022/05/27 09:02:10;;;;;;;14.45;3.92;;;13.80;78.10;;;;;;5015641;28;20052;-67
2022/05/27 09:04:56;;;;;;;18.98;4.85;;;14.40;65.60;;;;;;5010736;28;20060;-69
2022/05/27 09:07:41;;;;;;;14.25;2.88;;;14.40;60.40;;;;;;4991385;28;20879;-68
2022/05/27 09:10:45;;;;;;;22.83;3.25;;;14.50;59.60;;;;;;5008306;28;20057;-68
2022/05/27 09:13:22;;;;;;;37.80;5.68;;;14.70;55.90;;;;;;5007288;28;20041;-65
2022/05/27 09:16:16;;;;;;;24.13;4.35;;;14.90;54.60;;;;;;5007207;28;20048;-75
2022/05/27 09:19:00;;;;;;;20.42;4.95;;;14.80;60.10;;;;;;5005582;28;20330;-71
2022/05/27 09:21:54;;;;;;;20.13;4.07;;;14.20;62.70;;;;;;5006620;28;20598;-73
2022/05/27 09:24:31;;;;;;;16.83;3.97;;;14.30;64.10;;;;;;5005890;28;20041;-70
2022/05/27 09:27:08;;;;;;;26.27;4.55;;;14.60;64.20;;;;;;5004110;28;20056;-68
2022/05/27 09:29:59;;;;;;;15.05;4.00;;;14.80;61.10;;;;;;5024270;28;20045;-70
2022/05/27 09:32:50;;;;;;;21.02;4.80;;;14.60;56.90;;;;;;5024240;28;20387;-67
2022/05/27 09:35:30;;;;;;;13.95;2.97;;;14.70;64.40;;;;;;5019534;28;20156;-66
2022/05/27 09:38:00;;;;;;;16.70;3.65;;;14.90;66.00;;;;;;5005700;28;20075;-70
2022/05/27 09:40:46;;;;;;;12.43;3.30;;;14.80;55.20;;;;;;5005936;28;20042;-68
2022/05/27 09:43:23;;;;;;;14.00;4.00;;;14.50;58.60;;;;;;5022223;28;20057;-71
2022/05/27 09:45:54;;;;;;;15.38;3.30;;;14.30;59.70;;;;;;5004887;28;20053;-67
2022/05/27 09:48:20;;;;;;;17.55;4.80;;;14.30;69.30;;;;;;5006320;28;20514;-63
2022/05/27 09:50:48;;;;;;;24.17;4.85;;;14.10;60.60;;;;;;5005230;28;20041;-73
2022/05/27 09:53:33;;;;;;;18.33;4.78;;;14.30;61.50;;;;;;5004899;28;20057;-73
2022/05/27 09:56:02;;;;;;;18.52;4.35;;;14.10;64.90;;;;;;5004387;28;20496;-72
2022/05/27 09:58:37;;;;;;;20.02;3.90;;;14.10;65.20;;;;;;5011661;28;20499;-67
2022/05/27 10:01:17;;;;;;;20.73;4.32;;;14.50;71.60;;;;;;4990324;28;20080;-70
2022/05/27 10:03:43;;;;;;;23.42;4.88;;;14.50;60.20;;;;;;5005219;28;20391;-67
2022/05/27 10:06:19;;;;;;;17.48;4.28;;;14.00;63.60;;;;;;5022554;28;20053;-68
2022/05/27 10:08:57;;;;;;;20.92;4.72;;;14.00;63.60;;;;;;5023127;28;20423;-68
2022/05/27 10:11:53;;;;;;;18.05;3.85;;;14.30;68.00;;;;;;5012477;28;20087;-69
2022/05/27 10:14:34;;;;;;;23.35;4.63;;;14.60;55.20;;;;;;5045689;28;20052;-67
2022/05/27 10:17:17;;;;;;;14.38;3.80;;;14.50;57.60;;;;;;5019763;28;20057;-65
2022/05/27 10:19:47;;;;;;;24.25;4.10;;;14.10;60.20;;;;;;5020705;28;20052;-68
2022/05/27 10:22:29;;;;;;;14.85;3.80;;;14.40;69.70;;;;;;5011223;28;20551;-70
2022/05/27 10:25:11;;;;;;;17.25;2.97;;;14.80;59.70;;;;;;5006009;28;20052;-69
2022/05/27 10:27:39;;;;;;;16.80;4.07;;;14.60;54.80;;;;;;5010309;28;20399;-65
2022/05/27 10:30:27;;;;;;;23.30;4.05;;;14.30;58.60;;;;;;5012501;28;20041;-68
2022/05/27 10:32:54;;;;;;;13.27;3.63;;;14.40;61.80;;;;;;5026351;28;20496;-70
2022/05/27 10:35:26;;;;;;;18.70;4.15;;;14.70;57.00;;;;;;5027832;28;20500;-68
2022/05/27 10:38:28;;;;;;;13.43;3.67;;;14.80;55.40;;;;;;5010405;28;20658;-65
2022/05/27 10:40:57;;;;;;;21.58;4.47;;;14.60;55.80;;;;;;4999971;28;20153;-65
2022/05/27 10:43:36;;;;;;;25.92;4.30;;;14.40;56.10;;;;;;5009557;28;20053;-73
2022/05/27 10:46:05;;;;;;;21.67;4.07;;;14.60;66.20;;;;;;5027792;28;20045;-67
2022/05/27 10:49:00;;;;;;;19.55;4.22;;;14.90;53.50;;;;;;5010949;28;20077;-69
2022/05/27 10:51:38;;;;;;;17.10;4.55;;;14.60;55.20;;;;;;5010425;28;20049;-74
2022/05/27 10:54:16;;;;;;;22.48;4.10;;;14.30;63.40;;;;;;5011401;28;20103;-69
2022/05/27 11:02:04;;;;;;;23.38;5.07;;;14.20;65.20;;;;;;5007012;28;20728;-64
2022/05/27 11:03:04;;;;;;;19.80;4.80;;;14.40;63.30;;;;;;5015207;28;20113;-61
2022/05/27 11:05:55;;;;;;;22.38;4.65;;;14.10;55.20;;;;;;4991329;28;20110;-64
2022/05/27 11:08:28;;;;;;;19.60;4.07;;;13.90;59.10;;;;;;4990676;28;20418;-72
2022/05/27 11:11:06;;;;;;;29.13;5.10;;;14.10;68.00;;;;;;5003260;28;20049;-72
2022/05/27 11:16:56;;;;;;;18.05;4.25;;;14.50;60.80;;;;;;4990113;28;20568;-72
2022/05/27 11:19:40;;;;;;;18.50;4.57;;;14.40;65.10;;;;;;5007388;28;20171;-64
2022/05/27 11:22:09;;;;;;;17.83;4.30;;;14.10;55.90;;;;;;5008171;28;20053;-72
2022/05/27 11:24:41;;;;;;;23.92;5.40;;;13.90;62.70;;;;;;4974161;28;20100;-67
2022/05/27 11:27:40;;;;;;;31.73;5.57;;;13.90;68.50;;;;;;4990610;28;20053;-68
2022/05/27 11:30:26;;;;;;;32.25;4.72;;;14.20;61.40;;;;;;4992281;28;20054;-70
2022/05/27 11:32:59;;;;;;;21.80;4.65;;;14.20;63.10;;;;;;4990863;28;20061;-67
2022/05/27 11:35:44;;;;;;;19.33;3.28;;;14.20;63.00;;;;;;4971741;28;20508;-66
2022/05/27 11:38:35;;;;;;;31.13;4.85;;;14.40;63.60;;;;;;4987227;28;20042;-68
2022/05/27 11:41:01;;;;;;;19.25;4.28;;;14.40;62.80;;;;;;4996868;28;20501;-72
2022/05/27 11:43:45;;;;;;;23.75;6.00;;;14.50;58.90;;;;;;4973791;28;20046;-66
2022/05/27 11:46:46;;;;;;;26.63;5.07;;;14.70;61.00;;;;;;4990245;28;20054;-65
2022/05/27 11:49:45;;;;;;;28.30;4.20;;;14.80;55.20;;;;;;4950705;28;20062;-66
2022/05/27 11:52:32;;;;;;;13.30;3.80;;;14.70;63.10;;;;;;4972229;28;20166;-62
2022/05/27 11:55:19;;;;;;;39.00;5.25;;;14.50;53.10;;;;;;4993255;28;20462;-65
2022/05/27 11:58:14;;;;;;;20.38;3.75;;;14.30;54.10;;;;;;5010506;28;20045;-66
2022/05/27 12:00:47;;;;;;;13.05;3.28;;;14.60;55.20;;;;;;5009979;28;20048;-58
2022/05/27 12:03:52;;;;;;;16.13;3.92;;;14.70;48.50;;;;;;5028641;28;20572;-64
2022/05/27 12:06:42;;;;;;;27.35;3.90;;;14.40;48.60;;;;;;5030043;28;20045;-64
2022/05/27 12:09:38;;;;;;;16.33;4.30;;;14.10;52.30;;;;;;5029139;28;20052;-70
2022/05/27 12:12:11;;;;;;;17.55;4.03;;;14.10;60.40;;;;;;5030266;28;20049;-71
2022/05/27 12:14:52;;;;;;;19.60;4.32;;;14.40;59.80;;;;;;5058563;28;20408;-66
2022/05/27 12:17:22;;;;;;;16.00;3.80;;;14.40;53.10;;;;;;5025772;28;20045;-66
2022/05/27 12:20:01;;;;;;;13.10;3.47;;;14.10;58.20;;;;;;4993546;28;20496;-61
2022/05/27 12:22:35;;;;;;;22.07;4.83;;;13.90;54.60;;;;;;4993352;28;20103;-61
2022/05/27 12:25:03;;;;;;;21.38;3.45;;;14.10;60.00;;;;;;5011513;28;20376;-64
2022/05/27 12:27:29;;;;;;;18.00;4.18;;;14.40;55.90;;;;;;5029146;28;20041;-60
2022/05/27 12:29:55;;;;;;;18.83;4.80;;;14.50;53.50;;;;;;5028942;28;20056;-63
2022/05/27 12:32:25;;;;;;;20.67;4.10;;;14.40;61.80;;;;;;5029213;28;20041;-65
2022/05/27 12:34:52;;;;;;;14.60;3.60;;;14.50;50.60;;;;;;5012354;28;20127;-63
2022/05/27 12:37:28;;;;;;;14.05;3.65;;;14.50;49.60;;;;;;5028890;28;20048;-65
2022/05/27 12:40:25;;;;;;;21.00;4.72;;;14.60;49.00;;;;;;5029445;28;20402;-70
2022/05/27 12:42:55;;;;;;;19.45;4.53;;;14.30;48.30;;;;;;5012469;28;20047;-69
2022/05/27 12:45:46;;;;;;;19.05;4.10;;;14.20;49.40;;;;;;5029391;28;20087;-62
2022/05/27 12:48:30;;;;;;;32.65;5.35;;;14.30;48.20;;;;;;5028149;28;20055;-68
2022/05/27 12:51:01;;;;;;;22.25;4.15;;;14.20;53.30;;;;;;5028270;28;20495;-61
2022/05/27 12:53:43;;;;;;;20.00;4.35;;;14.30;53.90;;;;;;5028636;28;20530;-60
2022/05/27 13:02:14;;;;;;;10.82;2.42;;;15.00;44.30;;;;;;5022429;28;20080;-61
2022/05/27 13:04:54;;;;;;;17.67;3.78;;;15.30;39.00;;;;;;5011845;28;20045;-61
2022/05/27 13:07:40;;;;;;;14.82;3.80;;;15.00;38.20;;;;;;5028496;28;20138;-66
2022/05/27 13:10:18;;;;;;;20.45;3.65;;;14.70;45.60;;;;;;5010751;28;20053;-63
2022/05/27 13:13:01;;;;;;;20.80;4.40;;;14.80;48.70;;;;;;5028416;28;20049;-65
2022/05/27 13:15:45;;;;;;;27.58;4.88;;;15.10;57.40;;;;;;5028603;28;20056;-64
2022/05/27 13:18:25;;;;;;;20.05;4.43;;;15.00;43.30;;;;;;5028108;28;20049;-62
2022/05/27 13:21:07;;;;;;;38.58;6.18;;;14.60;48.00;;;;;;5027857;28;20059;-60
2022/05/27 13:23:50;;;;;;;24.73;4.90;;;14.70;53.90;;;;;;5028565;28;20441;-66
2022/05/27 13:26:47;;;;;;;31.48;4.25;;;15.10;48.30;;;;;;5011609;28;20053;-62
2022/05/27 13:29:25;;;;;;;17.60;3.92;;;15.30;46.70;;;;;;5011603;28;20045;-68
2022/05/27 13:32:05;;;;;;;23.73;5.43;;;15.20;50.90;;;;;;5016965;28;20059;-65
2022/05/27 13:34:46;;;;;;;22.23;4.78;;;14.70;45.90;;;;;;5027117;28;20053;-64
2022/05/27 13:37:22;;;;;;;24.15;5.28;;;14.20;49.50;;;;;;5010539;28;20478;-70
2022/05/27 13:39:59;;;;;;;21.73;3.88;;;14.20;48.40;;;;;;5027448;28;20384;-62